createdAt,value
2019-03-08T00:00:49.987Z,3.90
2019-03-08T00:03:37.724Z,2.33
2019-03-08T00:06:06.113Z,1.10
2019-03-08T00:08:53.854Z,2.47
2019-03-08T00:11:22.242Z,1.60
2019-03-08T00:16:44.393Z,3.90
2019-03-08T00:19:31.909Z,1.93
2019-03-08T00:24:34.097Z,4.00
2019-03-08T00:27:04.227Z,3.07
2019-03-08T00:29:51.860Z,3.53
2019-03-08T00:32:39.380Z,1.60
2019-03-08T00:35:47.699Z,4.77
2019-03-08T00:38:16.111Z,4.07
2019-03-08T00:40:46.222Z,2.13
2019-03-08T00:43:14.628Z,6.27
2019-03-08T00:49:10.394Z,2.90
2019-03-08T00:54:45.450Z,3.10
2019-03-08T00:57:33.094Z,1.77
2019-03-08T01:00:01.495Z,4.23
2019-03-08T01:02:31.605Z,6.80
2019-03-08T01:05:19.309Z,7.73
2019-03-08T01:07:47.713Z,5.87
2019-03-08T01:10:35.487Z,6.10
2019-03-08T01:13:23.432Z,2.90
2019-03-08T01:21:33.827Z,6.00
2019-03-08T01:24:21.349Z,4.53
2019-03-08T01:29:37.508Z,2.80
2019-03-08T01:32:25.050Z,2.70
2019-03-08T01:34:53.411Z,4.70
2019-03-08T01:37:41.044Z,4.07
2019-03-08T01:40:30.720Z,5.23
2019-03-08T01:43:18.355Z,4.33
2019-03-08T01:45:46.751Z,5.83
2019-03-08T01:48:34.261Z,4.37
2019-03-08T01:51:02.664Z,8.80
2019-03-08T01:53:50.173Z,4.30
2019-03-08T01:56:18.566Z,6.67
2019-03-08T01:58:46.962Z,6.30
2019-03-08T02:01:15.355Z,5.07
2019-03-08T02:03:43.742Z,4.37
2019-03-08T02:06:31.257Z,4.07
2019-03-08T02:08:59.653Z,4.27
2019-03-08T02:11:28.046Z,9.40
2019-03-08T02:14:15.687Z,4.40
2019-03-08T02:16:45.802Z,4.97
2019-03-08T02:21:48.233Z,4.40
2019-03-08T02:24:16.628Z,6.40
2019-03-08T02:27:04.128Z,6.30
2019-03-08T02:29:32.530Z,5.47
2019-03-08T02:32:00.918Z,5.87
2019-03-08T02:34:29.314Z,6.93
2019-03-08T02:37:16.948Z,5.50
2019-03-08T02:39:45.350Z,5.83
2019-03-08T02:42:32.986Z,4.80
2019-03-08T02:45:01.387Z,4.93
2019-03-08T02:47:49.022Z,4.40
2019-03-08T02:50:57.336Z,3.27
2019-03-08T02:53:44.964Z,2.37
2019-03-08T02:56:13.365Z,2.30
2019-03-08T02:59:00.996Z,2.00
2019-03-08T03:01:29.400Z,2.17
2019-03-08T03:03:57.788Z,4.43
2019-03-08T03:06:45.299Z,1.70
2019-03-08T03:09:13.860Z,3.10
2019-03-08T03:11:42.257Z,4.10
2019-03-08T03:14:10.642Z,1.50
2019-03-08T03:16:58.287Z,5.63
2019-03-08T03:19:26.678Z,1.60
2019-03-08T03:22:14.192Z,2.00
2019-03-08T03:24:42.591Z,2.97
2019-03-08T03:27:30.224Z,2.20
2019-03-08T03:29:58.906Z,2.23
2019-03-08T03:32:46.663Z,3.07
2019-03-08T03:35:34.181Z,2.20
2019-03-08T03:38:02.855Z,2.77
2019-03-08T03:43:44.897Z,2.60
2019-03-08T03:46:13.306Z,3.97
2019-03-08T03:49:00.946Z,2.80
2019-03-08T03:51:31.059Z,2.83
2019-03-08T03:54:18.564Z,2.60
2019-03-08T03:57:06.334Z,3.80
2019-03-08T03:59:53.836Z,2.60
2019-03-08T04:02:22.306Z,2.40
2019-03-08T04:07:38.139Z,2.47
2019-03-08T04:10:46.452Z,2.63
2019-03-08T04:13:14.909Z,2.63
2019-03-08T04:16:02.421Z,5.13
2019-03-08T04:18:30.814Z,4.40
2019-03-08T04:20:59.204Z,3.27
2019-03-08T04:23:29.320Z,2.97
2019-03-08T04:25:57.717Z,3.07
2019-03-08T04:31:13.545Z,4.00
2019-03-08T04:33:41.934Z,4.33
2019-03-08T04:36:30.359Z,5.60
2019-03-08T04:39:18.897Z,3.60
2019-03-08T04:41:49.009Z,2.73
2019-03-08T04:44:17.396Z,2.90
2019-03-08T04:46:45.788Z,2.60
2019-03-08T04:49:14.183Z,8.53
2019-03-08T04:52:01.696Z,3.40
2019-03-08T04:54:30.087Z,5.33
2019-03-08T04:57:17.728Z,8.93
2019-03-08T05:00:05.367Z,13.30
2019-03-08T05:02:34.042Z,4.70
2019-03-08T05:05:02.433Z,3.57
2019-03-08T05:07:30.837Z,5.50
2019-03-08T05:10:18.465Z,8.10
2019-03-08T05:13:05.981Z,6.07
2019-03-08T05:15:34.368Z,2.73
2019-03-08T05:18:02.765Z,3.00
2019-03-08T05:20:31.151Z,2.43
2019-03-08T05:23:01.330Z,3.37
2019-03-08T05:25:48.956Z,2.23
2019-03-08T05:28:17.358Z,2.23
2019-03-08T05:30:45.752Z,3.73
2019-03-08T05:33:16.129Z,4.53
2019-03-08T05:35:44.513Z,11.50
2019-03-08T05:38:12.914Z,5.40
2019-03-08T05:46:03.172Z,7.60
2019-03-08T05:48:50.634Z,4.43
2019-03-08T05:51:19.024Z,4.93
2019-03-08T05:53:47.420Z,8.30
2019-03-08T05:56:15.806Z,5.53
2019-03-08T05:59:03.587Z,8.73
2019-03-08T06:01:51.108Z,7.20
2019-03-08T06:04:19.500Z,3.57
2019-03-08T06:06:47.896Z,5.17
2019-03-08T06:09:35.402Z,3.23
2019-03-08T06:12:23.145Z,5.77
2019-03-08T06:15:10.781Z,5.53
2019-03-08T06:17:39.176Z,6.87
2019-03-08T06:20:26.818Z,6.43
2019-03-08T06:22:55.225Z,13.00
2019-03-08T06:25:23.625Z,11.87
2019-03-08T06:28:31.930Z,17.97
2019-03-08T06:31:00.333Z,13.43
2019-03-08T06:33:47.983Z,10.10
2019-03-08T06:36:37.211Z,6.53
2019-03-08T06:39:45.513Z,6.30
2019-03-08T06:44:48.153Z,7.83
2019-03-08T06:47:16.549Z,12.50
2019-03-08T06:49:44.942Z,7.27
2019-03-08T06:52:13.342Z,7.33
2019-03-08T06:54:41.738Z,10.07
2019-03-08T06:57:29.385Z,16.37
2019-03-08T07:02:46.861Z,9.40
2019-03-08T07:05:15.299Z,10.40
2019-03-08T07:07:43.664Z,9.10
2019-03-08T07:13:18.742Z,8.43
2019-03-08T07:15:47.135Z,10.63
2019-03-08T07:18:34.794Z,11.53
2019-03-08T07:21:22.470Z,17.50
2019-03-08T07:24:09.986Z,7.53
2019-03-08T07:26:57.500Z,10.30
2019-03-08T07:32:39.899Z,20.80
2019-03-08T07:35:48.203Z,24.27
2019-03-08T07:38:35.729Z,18.70
2019-03-08T07:44:12.324Z,31.83
2019-03-08T07:50:08.183Z,22.03
2019-03-08T07:52:55.946Z,23.17
2019-03-08T07:58:32.537Z,24.93
2019-03-08T08:04:47.915Z,21.50
2019-03-08T08:07:35.428Z,28.27
2019-03-08T08:10:43.742Z,21.37
2019-03-08T08:13:50.855Z,29.70
2019-03-08T08:16:38.362Z,24.83
2019-03-08T08:19:45.137Z,42.80
2019-03-08T08:22:32.645Z,22.63
2019-03-08T08:25:20.341Z,16.70
2019-03-08T08:28:07.845Z,24.70
2019-03-08T08:30:55.440Z,31.37
2019-03-08T08:33:42.959Z,20.57
2019-03-08T08:36:51.274Z,29.80
2019-03-08T08:39:38.798Z,31.20
2019-03-08T08:42:47.297Z,26.73
2019-03-08T08:45:34.812Z,27.60
2019-03-08T08:48:22.323Z,21.63
2019-03-08T08:53:48.759Z,46.13
2019-03-08T08:56:36.259Z,13.83
2019-03-08T08:59:44.591Z,27.60
2019-03-08T09:02:32.103Z,12.13
2019-03-08T09:05:19.629Z,16.73
2019-03-08T09:08:07.139Z,24.13
2019-03-08T09:13:49.332Z,22.07
2019-03-08T09:22:10.561Z,19.10
2019-03-08T09:24:58.081Z,20.37
2019-03-08T09:27:45.599Z,23.57
2019-03-08T09:30:53.912Z,35.13
2019-03-08T09:33:41.423Z,27.23
2019-03-08T09:36:28.950Z,16.10
2019-03-08T09:39:35.733Z,23.83
2019-03-08T09:45:31.313Z,24.30
2019-03-08T09:56:22.216Z,14.27
2019-03-08T09:59:09.732Z,23.90
2019-03-08T10:01:57.253Z,26.77
2019-03-08T10:07:53.270Z,12.80
2019-03-08T10:21:02.136Z,9.23
2019-03-08T10:23:49.647Z,12.43
2019-03-08T10:26:37.168Z,10.33
2019-03-08T10:34:48.957Z,10.07
2019-03-08T10:37:55.736Z,12.27
2019-03-08T10:40:43.269Z,10.27
2019-03-08T10:43:30.773Z,13.57
2019-03-08T10:46:18.290Z,9.87
2019-03-08T10:52:17.706Z,13.37
2019-03-08T10:55:03.419Z,9.10
2019-03-08T11:06:20.670Z,9.10
2019-03-08T11:11:57.264Z,8.80
2019-03-08T11:14:44.774Z,17.13
2019-03-08T11:20:07.566Z,15.43
2019-03-08T11:22:55.088Z,15.17
2019-03-08T11:25:42.600Z,10.27
2019-03-08T11:28:30.135Z,11.67
2019-03-08T11:31:17.646Z,7.47
2019-03-08T11:36:44.094Z,22.53
2019-03-08T11:45:15.656Z,15.30
2019-03-08T11:48:03.177Z,13.33
2019-03-08T11:51:10.027Z,17.57
2019-03-08T11:53:57.550Z,13.90
2019-03-08T11:56:45.059Z,10.90
2019-03-08T11:59:32.581Z,15.00
2019-03-08T12:02:39.637Z,17.73
2019-03-08T12:05:49.847Z,24.33
2019-03-08T12:11:32.683Z,16.80
2019-03-08T12:14:20.207Z,13.40
2019-03-08T12:17:07.721Z,9.83
2019-03-08T12:22:50.193Z,12.03
2019-03-08T12:25:37.698Z,9.03
2019-03-08T12:28:25.224Z,18.00
2019-03-08T12:31:12.770Z,12.33
2019-03-08T12:34:00.298Z,19.67
2019-03-08T12:36:47.813Z,10.27
2019-03-08T12:39:35.358Z,13.50
2019-03-08T12:45:31.218Z,17.77
2019-03-08T12:48:23.828Z,15.60
2019-03-08T12:51:27.230Z,10.57
2019-03-08T12:54:14.751Z,14.53
2019-03-08T12:57:02.282Z,22.50
2019-03-08T13:00:09.062Z,14.97
2019-03-08T13:02:56.582Z,23.67
2019-03-08T13:05:44.090Z,14.67
2019-03-08T13:08:31.784Z,9.60
2019-03-08T13:11:19.428Z,14.63
2019-03-08T13:14:07.086Z,22.73
2019-03-08T13:16:35.517Z,19.67
2019-03-08T13:19:03.923Z,16.03
2019-03-08T13:21:32.321Z,18.73
2019-03-08T13:24:19.839Z,24.13
2019-03-08T13:26:48.243Z,21.60
2019-03-08T13:29:16.651Z,19.03
2019-03-08T13:39:41.329Z,9.43
2019-03-08T13:42:28.841Z,11.83
2019-03-08T13:44:57.257Z,15.83
2019-03-08T13:50:53.012Z,10.13
2019-03-08T13:53:21.408Z,16.07
2019-03-08T13:56:09.065Z,17.30
2019-03-08T14:01:24.922Z,25.80
2019-03-08T14:03:53.334Z,13.17
2019-03-08T14:06:40.977Z,13.30
2019-03-08T14:12:04.503Z,20.80
2019-03-08T14:14:33.033Z,15.73
2019-03-08T14:17:01.524Z,20.00
2019-03-08T14:19:30.474Z,20.47
2019-03-08T14:21:58.958Z,10.47
2019-03-08T14:24:27.547Z,15.43
2019-03-08T14:27:15.306Z,11.50
2019-03-08T14:30:23.812Z,15.40
2019-03-08T14:32:52.373Z,14.00
2019-03-08T14:37:57.151Z,19.17
2019-03-08T14:40:46.310Z,24.37
2019-03-08T14:43:53.897Z,15.60
2019-03-08T14:49:02.200Z,16.13
2019-03-08T14:51:30.932Z,13.07
2019-03-08T14:54:18.601Z,22.07
2019-03-08T14:59:42.188Z,19.90
2019-03-08T15:02:13.595Z,17.10
2019-03-08T15:07:28.257Z,26.13
2019-03-08T15:09:56.671Z,29.67
2019-03-08T15:12:48.884Z,10.73
2019-03-08T15:15:57.969Z,22.70
2019-03-08T15:18:25.911Z,21.00
2019-03-08T15:20:58.282Z,20.63
2019-03-08T15:23:25.040Z,22.10
2019-03-08T15:26:12.787Z,10.93
2019-03-08T15:29:00.448Z,19.13
2019-03-08T15:31:28.836Z,21.70
2019-03-08T15:33:57.233Z,20.50
2019-03-08T15:36:27.364Z,23.73
2019-03-08T15:38:58.862Z,16.50
2019-03-08T15:41:45.148Z,13.93
2019-03-08T15:44:13.543Z,20.13
2019-03-08T15:49:16.260Z,14.10
2019-03-08T15:52:04.660Z,6.83
2019-03-08T15:54:34.046Z,16.47
2019-03-08T15:57:21.740Z,14.90
2019-03-08T15:59:50.141Z,15.10
2019-03-08T16:02:37.671Z,17.53
2019-03-08T16:05:45.987Z,19.47
2019-03-08T16:08:16.103Z,15.80
2019-03-08T16:11:03.760Z,14.03
2019-03-08T16:13:32.156Z,35.17
2019-03-08T16:16:19.812Z,12.37
2019-03-08T16:19:07.322Z,11.37
2019-03-08T16:21:35.727Z,18.17
2019-03-08T16:24:05.857Z,17.43
2019-03-08T16:26:53.359Z,13.87
2019-03-08T16:29:40.735Z,15.77
2019-03-08T16:34:44.074Z,17.77
2019-03-08T16:37:31.356Z,19.37
2019-03-08T16:40:18.633Z,12.63
2019-03-08T16:43:07.659Z,18.90
2019-03-08T16:45:56.177Z,12.87
2019-03-08T16:54:17.243Z,11.87
2019-03-08T17:02:35.097Z,11.57
2019-03-08T17:08:30.716Z,12.27
2019-03-08T17:16:42.713Z,12.23
2019-03-08T17:19:51.028Z,15.20
2019-03-08T17:25:14.140Z,18.43
2019-03-08T17:28:01.665Z,13.90
2019-03-08T17:30:49.177Z,13.30
2019-03-08T17:33:36.705Z,13.00
2019-03-08T17:36:45.008Z,15.30
2019-03-08T17:39:32.526Z,20.60
2019-03-08T17:42:20.035Z,8.90
2019-03-08T17:45:26.817Z,18.40
2019-03-08T17:48:14.341Z,11.20
2019-03-08T17:53:50.945Z,18.03
2019-03-08T17:56:38.457Z,18.77
2019-03-08T17:59:26.157Z,27.73
2019-03-08T18:02:13.701Z,30.20
2019-03-08T18:05:01.225Z,29.27
2019-03-08T18:10:58.639Z,14.53
2019-03-08T18:19:00.081Z,17.23
2019-03-08T18:21:47.597Z,11.37
2019-03-08T18:24:35.121Z,13.87
2019-03-08T18:27:22.635Z,18.50
2019-03-08T18:30:10.159Z,14.40
2019-03-08T18:32:57.676Z,14.53
2019-03-08T18:35:45.378Z,16.77
2019-03-08T18:41:21.978Z,15.63
2019-03-08T18:44:09.502Z,15.30
2019-03-08T18:46:57.035Z,16.83
2019-03-08T18:49:44.559Z,27.03
2019-03-08T18:52:32.088Z,19.93
2019-03-08T18:55:19.611Z,11.97
2019-03-08T18:58:07.131Z,16.37
2019-03-08T19:01:13.996Z,15.20
2019-03-08T19:04:01.590Z,17.10
2019-03-08T19:07:08.363Z,11.20
2019-03-08T19:18:06.276Z,19.60
2019-03-08T19:20:53.844Z,10.03
2019-03-08T19:23:41.358Z,13.33
2019-03-08T19:26:28.875Z,26.90
2019-03-08T19:32:05.466Z,9.93
2019-03-08T19:35:12.297Z,20.93
2019-03-08T19:37:59.828Z,14.83
2019-03-08T19:40:47.354Z,10.90
2019-03-08T19:43:35.038Z,11.13
2019-03-08T19:46:41.893Z,17.03
2019-03-08T19:49:29.438Z,11.83
2019-03-08T19:52:16.961Z,12.63
2019-03-08T19:55:04.503Z,15.23
2019-03-08T20:01:00.332Z,9.53
2019-03-08T20:06:36.938Z,15.43
2019-03-08T20:09:45.253Z,20.50
2019-03-08T20:12:32.839Z,11.83
2019-03-08T20:15:20.462Z,14.60
2019-03-08T20:18:08.033Z,17.70
2019-03-08T20:23:50.484Z,8.63
2019-03-08T20:26:38.081Z,9.00
2019-03-08T20:29:25.593Z,12.13
2019-03-08T20:34:48.862Z,11.27
2019-03-08T20:37:36.385Z,13.00
2019-03-08T20:40:44.761Z,15.53
2019-03-08T20:46:09.254Z,10.90
2019-03-08T20:48:56.769Z,11.83
2019-03-08T20:52:05.083Z,10.50
2019-03-08T20:54:35.195Z,8.97
2019-03-08T20:57:22.833Z,7.17
2019-03-08T20:59:51.236Z,15.03
2019-03-08T21:02:19.639Z,16.60
2019-03-08T21:07:37.215Z,12.57
2019-03-08T21:10:24.952Z,11.97
2019-03-08T21:15:26.952Z,15.10
2019-03-08T21:18:14.604Z,17.83
2019-03-08T21:23:51.419Z,21.90
2019-03-08T21:26:19.819Z,14.83
2019-03-08T21:31:22.812Z,13.83
2019-03-08T21:34:10.339Z,6.90
2019-03-08T21:36:38.806Z,14.63
2019-03-08T21:39:47.121Z,8.53
2019-03-08T21:42:47.284Z,19.70
2019-03-08T21:45:55.828Z,16.23
2019-03-08T21:48:24.233Z,8.80
2019-03-08T21:51:32.536Z,14.90
2019-03-08T21:54:00.944Z,9.97
2019-03-08T21:56:29.350Z,6.23
2019-03-08T21:58:57.754Z,8.60
2019-03-08T22:01:26.154Z,12.87
2019-03-08T22:06:33.479Z,14.47
2019-03-08T22:12:16.289Z,12.60
2019-03-08T22:14:44.735Z,15.43
2019-03-08T22:20:00.586Z,10.77
2019-03-08T22:22:48.218Z,9.37
2019-03-08T22:25:16.616Z,8.50
2019-03-08T22:30:32.458Z,16.50
2019-03-08T22:33:00.901Z,14.77
2019-03-08T22:35:29.259Z,14.33
2019-03-08T22:37:57.663Z,14.00
2019-03-08T22:40:26.066Z,14.30
2019-03-08T22:42:54.467Z,12.67
2019-03-08T22:45:22.867Z,12.40
2019-03-08T22:47:51.266Z,13.30
2019-03-08T22:50:21.386Z,13.00
2019-03-08T22:52:49.782Z,12.40
2019-03-08T22:55:37.423Z,9.73
2019-03-08T22:58:05.820Z,13.97
2019-03-08T23:01:15.911Z,11.90
2019-03-08T23:03:44.318Z,8.30
2019-03-08T23:06:32.036Z,13.67
2019-03-08T23:09:19.549Z,12.03
2019-03-08T23:11:47.943Z,10.17
2019-03-08T23:14:35.483Z,12.47
2019-03-08T23:17:23.122Z,10.03
2019-03-08T23:19:53.247Z,7.47
2019-03-08T23:22:21.642Z,10.33
2019-03-08T23:24:50.036Z,8.17
2019-03-08T23:27:37.542Z,7.00
2019-03-08T23:30:45.862Z,7.23
2019-03-08T23:33:14.247Z,5.97
2019-03-08T23:36:03.626Z,10.13
2019-03-08T23:41:19.453Z,8.43
2019-03-08T23:44:06.969Z,11.60
2019-03-08T23:49:22.835Z,6.93
2019-03-08T23:51:51.266Z,5.20
2019-03-08T23:54:19.705Z,5.97
